createdAt,value
2018-12-27T00:01:13.971Z,-67
2018-12-27T00:03:41.939Z,-67
2018-12-27T00:06:09.721Z,-67
2018-12-27T00:08:37.639Z,-69
2018-12-27T00:11:05.391Z,-67
2018-12-27T00:13:33.184Z,-68
2018-12-27T00:16:01.315Z,-68
2018-12-27T00:18:29.250Z,-67
2018-12-27T00:20:57.011Z,-67
2018-12-27T00:23:24.765Z,-68
2018-12-27T00:25:52.537Z,-67
2018-12-27T00:28:20.373Z,-68
2018-12-27T00:30:48.161Z,-67
2018-12-27T00:33:15.909Z,-68
2018-12-27T00:35:43.656Z,-67
2018-12-27T00:38:11.439Z,-68
2018-12-27T00:40:39.182Z,-68
2018-12-27T00:43:07.119Z,-68
2018-12-27T00:45:34.863Z,-68
2018-12-27T00:48:02.630Z,-69
2018-12-27T00:50:30.341Z,-66
2018-12-27T00:52:58.187Z,-66
2018-12-27T00:55:25.937Z,-68
2018-12-27T00:57:53.916Z,-67
2018-12-27T01:00:24.075Z,-67
2018-12-27T01:02:51.618Z,-68
2018-12-27T01:05:19.366Z,-67
2018-12-27T01:07:49.496Z,-68
2018-12-27T01:10:17.244Z,-68
2018-12-27T01:12:45.254Z,-69
2018-12-27T01:15:13.008Z,-69
2018-12-27T01:17:43.605Z,-71
2018-12-27T01:20:11.479Z,-68
2018-12-27T01:22:39.506Z,-69
2018-12-27T01:25:07.439Z,-69
2018-12-27T01:27:35.707Z,-68
2018-12-27T01:30:03.479Z,-69
2018-12-27T01:32:31.402Z,-68
2018-12-27T01:34:59.453Z,-69
2018-12-27T01:37:27.226Z,-69
2018-12-27T01:39:55.010Z,-68
2018-12-27T01:42:22.754Z,-69
2018-12-27T01:44:50.522Z,-69
2018-12-27T01:47:18.298Z,-70
2018-12-27T01:49:46.211Z,-68
2018-12-27T01:52:13.992Z,-69
2018-12-27T01:54:41.722Z,-68
2018-12-27T01:57:09.496Z,-69
2018-12-27T01:59:37.264Z,-69
2018-12-27T02:02:05.023Z,-68
2018-12-27T02:04:32.768Z,-68
2018-12-27T02:07:00.528Z,-69
2018-12-27T02:09:28.317Z,-67
2018-12-27T02:11:56.057Z,-70
2018-12-27T02:14:23.723Z,-69
2018-12-27T02:16:51.473Z,-69
2018-12-27T02:19:19.413Z,-70
2018-12-27T02:21:47.095Z,-67
2018-12-27T02:24:15.014Z,-69
2018-12-27T02:26:42.757Z,-69
2018-12-27T02:29:10.518Z,-68
2018-12-27T02:31:38.285Z,-69
2018-12-27T02:34:08.610Z,-68
2018-12-27T02:36:36.347Z,-68
2018-12-27T02:39:06.491Z,-68
2018-12-27T02:41:34.236Z,-70
2018-12-27T02:44:02.177Z,-68
2018-12-27T02:46:33.063Z,-68
2018-12-27T02:49:00.827Z,-68
2018-12-27T02:51:28.579Z,-68
2018-12-27T02:53:56.555Z,-68
2018-12-27T02:56:24.273Z,-69
2018-12-27T02:58:52.280Z,-69
2018-12-27T03:01:20.034Z,-69
2018-12-27T03:03:47.686Z,-68
2018-12-27T03:06:15.459Z,-69
2018-12-27T03:08:43.429Z,-68
2018-12-27T03:11:14.296Z,-67
2018-12-27T03:13:42.095Z,-68
2018-12-27T03:16:12.016Z,-69
2018-12-27T03:18:39.796Z,-69
2018-12-27T03:21:07.781Z,-70
2018-12-27T03:23:35.554Z,-69
2018-12-27T03:26:03.338Z,-69
2018-12-27T03:28:31.088Z,-67
2018-12-27T03:30:59.048Z,-68
2018-12-27T03:33:26.827Z,-67
2018-12-27T03:35:54.754Z,-68
2018-12-27T03:38:22.463Z,-67
2018-12-27T03:40:50.200Z,-69
2018-12-27T03:43:18.017Z,-68
2018-12-27T03:45:45.857Z,-69
2018-12-27T03:48:14.801Z,-69
2018-12-27T03:50:44.438Z,-69
2018-12-27T03:53:12.201Z,-68
2018-12-27T03:55:39.956Z,-68
2018-12-27T03:58:07.908Z,-68
2018-12-27T04:00:35.724Z,-68
2018-12-27T04:03:03.511Z,-69
2018-12-27T04:05:31.569Z,-69
2018-12-27T04:07:59.487Z,-69
2018-12-27T04:10:27.328Z,-68
2018-12-27T04:12:55.109Z,-70
2018-12-27T04:15:22.869Z,-69
2018-12-27T04:17:53.742Z,-68
2018-12-27T04:20:21.666Z,-68
2018-12-27T04:22:49.616Z,-71
2018-12-27T04:25:17.538Z,-69
2018-12-27T04:27:45.314Z,-68
2018-12-27T04:30:13.099Z,-69
2018-12-27T04:32:42.582Z,-70
2018-12-27T04:35:10.881Z,-69
2018-12-27T04:37:38.830Z,-69
2018-12-27T04:40:06.638Z,-69
2018-12-27T04:42:35.628Z,-68
2018-12-27T04:45:03.627Z,-69
2018-12-27T04:47:31.549Z,-69
2018-12-27T04:49:59.316Z,-68
2018-12-27T04:52:27.078Z,-68
2018-12-27T04:54:54.966Z,-69
2018-12-27T04:57:22.891Z,-70
2018-12-27T04:59:50.660Z,-68
2018-12-27T05:02:18.596Z,-69
2018-12-27T05:04:46.380Z,-69
2018-12-27T05:07:14.102Z,-68
2018-12-27T05:09:41.940Z,-70
2018-12-27T05:12:09.681Z,-69
2018-12-27T05:14:37.434Z,-69
2018-12-27T05:17:05.152Z,-69
2018-12-27T05:19:32.980Z,-68
2018-12-27T05:22:01.734Z,-69
2018-12-27T05:24:29.514Z,-70
2018-12-27T05:26:57.446Z,-70
2018-12-27T05:29:25.275Z,-69
2018-12-27T05:31:53.196Z,-69
2018-12-27T05:34:26.298Z,-74
2018-12-27T05:36:53.088Z,-73
2018-12-27T05:39:23.120Z,-72
2018-12-27T05:41:50.994Z,-75
2018-12-27T05:44:19.597Z,-73
2018-12-27T05:46:47.513Z,-75
2018-12-27T05:49:16.784Z,-75
2018-12-27T05:51:44.993Z,-74
2018-12-27T05:54:12.962Z,-73
2018-12-27T05:56:40.899Z,-74
2018-12-27T05:59:08.882Z,-73
2018-12-27T06:01:36.655Z,-74
2018-12-27T06:04:04.456Z,-75
2018-12-27T06:06:33.201Z,-75
2018-12-27T06:09:01.289Z,-73
2018-12-27T06:11:29.213Z,-76
2018-12-27T06:14:00.164Z,-75
2018-12-27T06:16:27.959Z,-74
2018-12-27T06:18:55.765Z,-73
2018-12-27T06:21:23.553Z,-73
2018-12-27T06:23:51.290Z,-74
2018-12-27T06:26:19.067Z,-74
2018-12-27T06:28:47.398Z,-73
2018-12-27T06:31:15.186Z,-73
2018-12-27T06:33:43.133Z,-75
2018-12-27T06:36:10.936Z,-76
2018-12-27T06:38:38.882Z,-73
2018-12-27T06:41:06.667Z,-74
2018-12-27T06:43:34.476Z,-73
2018-12-27T06:46:02.264Z,-73
2018-12-27T06:48:30.175Z,-74
2018-12-27T06:50:57.981Z,-74
2018-12-27T06:53:25.744Z,-74
2018-12-27T06:55:53.524Z,-74
2018-12-27T06:58:21.455Z,-74
2018-12-27T07:00:49.262Z,-74
2018-12-27T07:03:17.217Z,-73
2018-12-27T07:05:44.962Z,-74
2018-12-27T07:08:12.942Z,-73
2018-12-27T07:10:40.766Z,-73
2018-12-27T07:13:08.493Z,-73
2018-12-27T07:15:36.266Z,-75
2018-12-27T07:18:04.091Z,-74
2018-12-27T07:20:32.076Z,-75
2018-12-27T07:23:00.090Z,-76
2018-12-27T07:25:27.884Z,-73
2018-12-27T07:27:55.649Z,-74
2018-12-27T07:30:23.421Z,-74
2018-12-27T07:32:51.173Z,-74
2018-12-27T07:35:19.399Z,-74
2018-12-27T07:37:47.191Z,-73
2018-12-27T07:40:15.003Z,-74
2018-12-27T07:42:43.007Z,-73
2018-12-27T07:45:10.839Z,-74
2018-12-27T07:47:38.645Z,-74
2018-12-27T07:50:07.009Z,-73
2018-12-27T07:52:34.783Z,-72
2018-12-27T07:55:02.775Z,-74
2018-12-27T07:57:32.541Z,-74
2018-12-27T08:00:00.279Z,-73
2018-12-27T08:02:28.063Z,-75
2018-12-27T08:04:56.007Z,-74
2018-12-27T08:07:23.765Z,-74
2018-12-27T08:09:51.585Z,-73
2018-12-27T08:12:19.372Z,-74
2018-12-27T08:14:48.518Z,-74
2018-12-27T08:17:16.291Z,-74
2018-12-27T08:19:44.297Z,-74
2018-12-27T08:22:12.009Z,-74
2018-12-27T08:24:40.018Z,-73
2018-12-27T08:27:08.113Z,-75
2018-12-27T08:29:36.780Z,-73
2018-12-27T08:32:04.543Z,-76
2018-12-27T08:34:32.378Z,-76
2018-12-27T08:37:00.104Z,-75
2018-12-27T08:39:27.842Z,-72
2018-12-27T08:41:55.686Z,-76
2018-12-27T08:44:23.652Z,-76
2018-12-27T08:46:51.382Z,-74
2018-12-27T08:49:22.114Z,-77
2018-12-27T08:51:50.132Z,-76
2018-12-27T08:54:18.044Z,-75
2018-12-27T08:56:46.068Z,-77
2018-12-27T08:59:14.220Z,-76
2018-12-27T09:01:42.116Z,-75
2018-12-27T09:04:10.100Z,-75
2018-12-27T09:06:37.891Z,-74
2018-12-27T09:09:07.504Z,-78
2018-12-27T09:11:35.474Z,-74
2018-12-27T09:14:03.239Z,-75
2018-12-27T09:16:31.994Z,-78
2018-12-27T09:18:59.748Z,-74
2018-12-27T09:21:27.728Z,-78
2018-12-27T09:23:55.503Z,-74
2018-12-27T09:26:23.527Z,-75
2018-12-27T09:28:51.594Z,-75
2018-12-27T09:31:19.412Z,-76
2018-12-27T09:33:47.476Z,-73
2018-12-27T09:36:15.424Z,-78
2018-12-27T09:38:45.647Z,-73
2018-12-27T09:41:13.518Z,-78
2018-12-27T09:43:41.357Z,-76
2018-12-27T09:46:09.312Z,-75
2018-12-27T09:48:37.168Z,-74
2018-12-27T09:51:06.474Z,-73
2018-12-27T09:53:34.298Z,-79
2018-12-27T09:56:02.229Z,-78
2018-12-27T09:58:30.080Z,-75
2018-12-27T10:00:58.117Z,-74
2018-12-27T10:03:25.918Z,-76
2018-12-27T10:05:53.912Z,-75
2018-12-27T10:08:21.776Z,-79
2018-12-27T10:10:49.794Z,-73
2018-12-27T10:13:18.363Z,-76
2018-12-27T10:15:47.281Z,-75
2018-12-27T10:18:15.057Z,-74
2018-12-27T10:20:42.935Z,-75
2018-12-27T10:23:13.132Z,-78
2018-12-27T10:25:42.985Z,-74
2018-12-27T10:28:12.497Z,-80
2018-12-27T10:30:40.241Z,-75
2018-12-27T10:33:08.347Z,-74
2018-12-27T10:35:41.154Z,-75
2018-12-27T10:38:07.132Z,-77
2018-12-27T10:40:35.081Z,-76
2018-12-27T10:43:02.862Z,-74
2018-12-27T10:45:30.750Z,-77
2018-12-27T10:47:58.843Z,-76
2018-12-27T10:50:26.872Z,-76
2018-12-27T10:52:54.678Z,-74
2018-12-27T10:55:22.541Z,-77
2018-12-27T10:57:50.326Z,-74
2018-12-27T11:00:18.215Z,-79
2018-12-27T11:02:46.194Z,-74
2018-12-27T11:05:14.121Z,-75
2018-12-27T11:07:41.868Z,-74
2018-12-27T11:10:11.895Z,-74
2018-12-27T11:12:39.888Z,-78
2018-12-27T11:15:07.657Z,-74
2018-12-27T11:17:35.534Z,-75
2018-12-27T11:20:03.606Z,-74
2018-12-27T11:22:31.439Z,-76
2018-12-27T11:24:59.211Z,-75
2018-12-27T11:27:27.124Z,-77
2018-12-27T11:29:55.166Z,-78
2018-12-27T11:32:22.932Z,-74
2018-12-27T11:34:53.513Z,-80
2018-12-27T11:37:21.537Z,-77
2018-12-27T11:39:51.387Z,-75
2018-12-27T11:42:19.504Z,-75
2018-12-27T11:44:47.431Z,-76
2018-12-27T11:47:15.345Z,-78
2018-12-27T11:49:43.172Z,-74
2018-12-27T11:52:11.157Z,-78
2018-12-27T11:54:41.368Z,-73
2018-12-27T11:57:09.290Z,-77
2018-12-27T11:59:37.057Z,-73
2018-12-27T12:02:04.916Z,-78
2018-12-27T12:04:33.369Z,-79
2018-12-27T12:07:01.201Z,-74
2018-12-27T12:09:29.063Z,-76
2018-12-27T12:12:02.024Z,-74
2018-12-27T12:14:29.891Z,-79
2018-12-27T12:16:57.705Z,-74
2018-12-27T12:19:25.529Z,-75
2018-12-27T12:21:53.437Z,-74
2018-12-27T12:24:21.283Z,-73
2018-12-27T12:26:49.067Z,-78
2018-12-27T12:29:16.885Z,-77
2018-12-27T12:31:45.053Z,-75
2018-12-27T12:34:12.855Z,-78
2018-12-27T12:36:41.501Z,-75
2018-12-27T12:39:09.227Z,-77
2018-12-27T12:41:37.351Z,-78
2018-12-27T12:44:05.191Z,-75
2018-12-27T12:46:33.012Z,-75
2018-12-27T12:49:00.919Z,-73
2018-12-27T12:51:28.682Z,-75
2018-12-27T12:53:56.504Z,-78
2018-12-27T12:56:24.298Z,-75
2018-12-27T12:58:52.146Z,-77
2018-12-27T13:01:19.880Z,-76
2018-12-27T13:03:47.662Z,-77
2018-12-27T13:06:18.101Z,-74
2018-12-27T13:08:45.288Z,-73
2018-12-27T13:11:13.123Z,-76
2018-12-27T13:13:41.168Z,-77
2018-12-27T13:16:08.901Z,-75
2018-12-27T13:18:36.712Z,-74
2018-12-27T13:21:04.746Z,-74
2018-12-27T13:23:32.583Z,-75
2018-12-27T13:26:00.391Z,-76
2018-12-27T13:28:28.556Z,-77
2018-12-27T13:30:56.505Z,-74
2018-12-27T13:33:24.285Z,-76
2018-12-27T13:35:52.085Z,-75
2018-12-27T13:38:19.882Z,-79
2018-12-27T13:40:47.683Z,-74
2018-12-27T13:43:15.493Z,-77
2018-12-27T13:45:43.478Z,-74
2018-12-27T13:48:13.271Z,-76
2018-12-27T13:50:42.443Z,-77
2018-12-27T13:53:10.244Z,-78
2018-12-27T13:55:38.036Z,-74
2018-12-27T13:58:07.643Z,-78
2018-12-27T14:00:35.437Z,-75
2018-12-27T14:03:03.226Z,-75
2018-12-27T14:05:31.014Z,-74
2018-12-27T14:07:58.909Z,-74
2018-12-27T14:10:26.702Z,-75
2018-12-27T14:12:54.515Z,-77
2018-12-27T14:15:22.272Z,-74
2018-12-27T14:17:50.358Z,-77
2018-12-27T14:20:18.118Z,-74
2018-12-27T14:22:45.921Z,-77
2018-12-27T14:25:13.702Z,-74
2018-12-27T14:27:41.622Z,-74
2018-12-27T14:30:09.611Z,-76
2018-12-27T14:32:38.607Z,-75
2018-12-27T14:35:06.631Z,-73
2018-12-27T14:37:34.474Z,-74
2018-12-27T14:40:02.804Z,-76
2018-12-27T14:42:30.634Z,-73
2018-12-27T14:44:58.424Z,-74
2018-12-27T14:47:26.489Z,-74
2018-12-27T14:49:54.442Z,-79
2018-12-27T14:52:25.218Z,-75
2018-12-27T14:54:53.010Z,-76
2018-12-27T14:57:20.772Z,-76
2018-12-27T14:59:51.596Z,-75
2018-12-27T15:02:19.444Z,-78
2018-12-27T15:04:47.382Z,-77
2018-12-27T15:07:15.944Z,-74
2018-12-27T15:09:44.848Z,-75
2018-12-27T15:12:12.714Z,-76
2018-12-27T15:14:40.847Z,-73
2018-12-27T15:17:08.884Z,-73
2018-12-27T15:19:36.879Z,-76
2018-12-27T15:22:04.910Z,-73
2018-12-27T15:24:32.820Z,-73
2018-12-27T15:27:02.074Z,-73
2018-12-27T15:29:30.028Z,-71
2018-12-27T15:31:58.482Z,-75
2018-12-27T15:34:26.352Z,-77
2018-12-27T15:36:54.534Z,-74
2018-12-27T15:39:22.487Z,-73
2018-12-27T15:41:50.485Z,-73
2018-12-27T15:44:18.300Z,-77
2018-12-27T15:46:46.642Z,-75
2018-12-27T15:49:14.556Z,-73
2018-12-27T15:51:42.393Z,-74
2018-12-27T15:54:10.190Z,-75
2018-12-27T15:56:38.155Z,-73
2018-12-27T15:59:06.049Z,-78
2018-12-27T16:01:34.067Z,-75
2018-12-27T16:04:01.949Z,-77
2018-12-27T16:06:29.701Z,-77
2018-12-27T16:08:57.557Z,-75
2018-12-27T16:11:25.289Z,-73
2018-12-27T16:13:53.297Z,-75
2018-12-27T16:16:21.350Z,-77
2018-12-27T16:18:49.117Z,-73
2018-12-27T16:21:18.455Z,-78
2018-12-27T16:23:46.563Z,-77
2018-12-27T16:26:14.489Z,-75
2018-12-27T16:28:47.568Z,-76
2018-12-27T16:31:25.425Z,-78
2018-12-27T16:33:53.203Z,-75
2018-12-27T16:36:21.522Z,-73
2018-12-27T16:38:50.611Z,-75
2018-12-27T16:41:18.352Z,-75
2018-12-27T16:43:46.396Z,-78
2018-12-27T16:46:14.160Z,-73
2018-12-27T16:48:41.982Z,-73
2018-12-27T16:51:11.827Z,-73
2018-12-27T16:53:44.996Z,-76
2018-12-27T16:56:12.757Z,-75
2018-12-27T16:58:40.581Z,-74
2018-12-27T17:01:08.364Z,-79
2018-12-27T17:03:36.560Z,-75
2018-12-27T17:06:04.463Z,-74
2018-12-27T17:08:35.623Z,-79
2018-12-27T17:11:03.493Z,-75
2018-12-27T17:13:31.860Z,-79
2018-12-27T17:15:59.866Z,-75
2018-12-27T17:18:30.197Z,-78
2018-12-27T17:20:59.593Z,-75
2018-12-27T17:23:27.635Z,-79
2018-12-27T17:26:01.479Z,-77
2018-12-27T17:28:32.870Z,-73
2018-12-27T17:31:03.881Z,-79
2018-12-27T17:33:40.752Z,-79
2018-12-27T17:36:08.735Z,-76
2018-12-27T17:38:39.172Z,-78
2018-12-27T17:41:16.662Z,-78
2018-12-27T17:43:44.660Z,-74
2018-12-27T17:46:15.661Z,-76
2018-12-27T17:48:43.692Z,-77
2018-12-27T17:51:12.288Z,-76
2018-12-27T17:53:47.536Z,-78
2018-12-27T17:56:17.570Z,-78
2018-12-27T17:58:45.350Z,-76
2018-12-27T18:01:13.322Z,-79
2018-12-27T18:03:41.254Z,-79
2018-12-27T18:06:09.366Z,-76
2018-12-27T18:08:37.504Z,-74
2018-12-27T18:11:05.686Z,-78
2018-12-27T18:13:33.777Z,-75
2018-12-27T18:16:01.550Z,-76
2018-12-27T18:18:29.338Z,-77
2018-12-27T18:20:57.124Z,-74
2018-12-27T18:23:25.018Z,-78
2018-12-27T18:25:52.835Z,-77
2018-12-27T18:28:20.799Z,-76
2018-12-27T18:30:48.667Z,-78
2018-12-27T18:33:16.536Z,-79
2018-12-27T18:35:44.383Z,-74
2018-12-27T18:38:12.526Z,-75
2018-12-27T18:40:40.318Z,-76
2018-12-27T18:43:08.351Z,-78
2018-12-27T18:45:36.124Z,-75
2018-12-27T18:48:04.480Z,-78
2018-12-27T18:50:32.224Z,-74
2018-12-27T18:53:00.309Z,-75
2018-12-27T18:55:28.091Z,-79
2018-12-27T18:57:55.956Z,-78
2018-12-27T19:00:23.933Z,-75
2018-12-27T19:02:51.861Z,-79
2018-12-27T19:05:19.865Z,-77
2018-12-27T19:07:47.697Z,-75
2018-12-27T19:10:15.489Z,-75
2018-12-27T19:13:09.428Z,-75
2018-12-27T19:16:05.966Z,-74
2018-12-27T19:18:44.119Z,-75
2018-12-27T19:21:44.027Z,-75
2018-12-27T19:24:12.082Z,-76
2018-12-27T19:26:40.007Z,-74
2018-12-27T19:29:07.918Z,-73
2018-12-27T19:31:35.729Z,-75
2018-12-27T19:34:03.631Z,-78
2018-12-27T19:36:33.528Z,-73
2018-12-27T19:39:01.554Z,-75
2018-12-27T19:41:29.478Z,-78
2018-12-27T19:43:57.459Z,-76
2018-12-27T19:46:25.319Z,-77
2018-12-27T19:48:53.259Z,-76
2018-12-27T19:51:21.250Z,-78
2018-12-27T19:53:49.041Z,-79
2018-12-27T19:56:16.787Z,-75
2018-12-27T19:58:44.736Z,-79
2018-12-27T20:01:12.500Z,-78
2018-12-27T20:03:40.454Z,-74
2018-12-27T20:06:08.310Z,-79
2018-12-27T20:08:36.410Z,-78
2018-12-27T20:11:04.157Z,-76
2018-12-27T20:13:32.229Z,-79
2018-12-27T20:16:03.197Z,-74
2018-12-27T20:18:30.956Z,-77
2018-12-27T20:20:59.848Z,-78
2018-12-27T20:23:27.715Z,-77
2018-12-27T20:25:55.506Z,-75
2018-12-27T20:28:23.452Z,-78
2018-12-27T20:30:51.250Z,-75
2018-12-27T20:33:19.016Z,-77
2018-12-27T20:35:46.932Z,-78
2018-12-27T20:38:14.728Z,-80
2018-12-27T20:40:42.516Z,-76
2018-12-27T20:43:10.362Z,-77
2018-12-27T20:45:38.348Z,-79
2018-12-27T20:48:06.130Z,-74
2018-12-27T20:50:34.033Z,-78
2018-12-27T20:53:02.018Z,-76
2018-12-27T20:55:29.760Z,-75
2018-12-27T20:57:57.782Z,-77
2018-12-27T21:00:25.614Z,-76
2018-12-27T21:02:53.647Z,-75
2018-12-27T21:05:21.907Z,-75
2018-12-27T21:07:49.805Z,-76
2018-12-27T21:10:17.574Z,-74
2018-12-27T21:12:45.819Z,-76
2018-12-27T21:15:13.855Z,-75
2018-12-27T21:17:41.688Z,-76
2018-12-27T21:20:09.766Z,-77
2018-12-27T21:22:37.727Z,-75
2018-12-27T21:25:05.596Z,-76
2018-12-27T21:27:33.665Z,-77
2018-12-27T21:30:01.487Z,-79
2018-12-27T21:32:29.735Z,-75
2018-12-27T21:34:57.781Z,-80
2018-12-27T21:37:25.744Z,-75
2018-12-27T21:39:53.565Z,-76
2018-12-27T21:42:21.325Z,-75
2018-12-27T21:44:50.431Z,-75
2018-12-27T21:47:18.310Z,-78
2018-12-27T21:49:46.097Z,-76
2018-12-27T21:52:14.204Z,-74
2018-12-27T21:54:41.923Z,-75
2018-12-27T21:57:10.137Z,-77
2018-12-27T21:59:38.059Z,-79
2018-12-27T22:02:05.822Z,-74
2018-12-27T22:04:33.881Z,-79
2018-12-27T22:07:04.876Z,-77
2018-12-27T22:09:32.641Z,-75
2018-12-27T22:12:00.649Z,-78
2018-12-27T22:14:28.537Z,-75
2018-12-27T22:16:56.714Z,-77
2018-12-27T22:19:24.549Z,-77
2018-12-27T22:21:52.557Z,-75
2018-12-27T22:24:20.491Z,-79
2018-12-27T22:26:48.732Z,-75
2018-12-27T22:29:16.579Z,-69
2018-12-27T22:31:44.593Z,-69
2018-12-27T22:34:12.686Z,-72
2018-12-27T22:36:40.558Z,-69
2018-12-27T22:39:08.480Z,-70
2018-12-27T22:41:36.456Z,-70
2018-12-27T22:44:04.366Z,-72
2018-12-27T22:46:32.271Z,-72
2018-12-27T22:49:00.060Z,-68
2018-12-27T22:51:27.827Z,-68
2018-12-27T22:53:55.786Z,-69
2018-12-27T22:56:23.586Z,-70
2018-12-27T22:58:51.499Z,-77
2018-12-27T23:01:19.698Z,-76
2018-12-27T23:03:47.807Z,-77
2018-12-27T23:06:15.877Z,-79
2018-12-27T23:08:43.843Z,-73
2018-12-27T23:11:11.592Z,-68
2018-12-27T23:13:39.606Z,-73
2018-12-27T23:16:08.164Z,-73
2018-12-27T23:18:35.927Z,-68
2018-12-27T23:21:03.986Z,-74
2018-12-27T23:23:31.893Z,-69
2018-12-27T23:25:59.860Z,-72
2018-12-27T23:28:27.699Z,-68
2018-12-27T23:30:55.460Z,-69
2018-12-27T23:33:23.457Z,-71
2018-12-27T23:35:51.253Z,-69
2018-12-27T23:38:19.491Z,-70
2018-12-27T23:40:47.347Z,-69
2018-12-27T23:43:15.287Z,-69
2018-12-27T23:45:43.182Z,-70
2018-12-27T23:48:11.153Z,-68
2018-12-27T23:50:39.235Z,-70
2018-12-27T23:53:07.255Z,-69
2018-12-27T23:55:35.413Z,-71
2018-12-27T23:58:03.182Z,-69
